createdAt,value
2019-06-01T00:02:18.091Z,17.20
2019-06-01T00:04:49.475Z,17.20
2019-06-01T00:07:19.372Z,17.20
2019-06-01T00:09:49.623Z,17.20
2019-06-01T00:12:19.475Z,17.20
2019-06-01T00:14:50.787Z,17.10
2019-06-01T00:17:20.499Z,17.10
2019-06-01T00:19:50.361Z,17.10
2019-06-01T00:22:20.148Z,17.10
2019-06-01T00:24:50.120Z,17.10
2019-06-01T00:27:20.975Z,17.00
2019-06-01T00:29:50.622Z,17.00
2019-06-01T00:32:20.343Z,17.00
2019-06-01T00:34:50.069Z,17.00
2019-06-01T00:37:20.909Z,17.00
2019-06-01T00:39:52.415Z,17.00
2019-06-01T00:42:22.143Z,17.00
2019-06-01T00:44:52.504Z,16.90
2019-06-01T00:47:22.230Z,16.90
2019-06-01T00:49:53.081Z,16.90
2019-06-01T00:52:23.961Z,16.90
2019-06-01T00:54:53.714Z,16.80
2019-06-01T00:57:23.383Z,16.80
2019-06-01T00:59:54.705Z,16.80
2019-06-01T01:02:24.443Z,16.70
2019-06-01T01:05:02.129Z,16.60
2019-06-01T01:07:32.138Z,16.60
2019-06-01T01:10:01.883Z,16.50
2019-06-01T01:12:33.470Z,16.50
2019-06-01T01:15:04.297Z,16.40
2019-06-01T01:17:33.983Z,16.30
2019-06-01T01:20:05.052Z,16.20
2019-06-01T01:22:34.766Z,16.20
2019-06-01T01:25:06.316Z,16.20
2019-06-01T01:27:36.042Z,16.10
2019-06-01T01:30:07.209Z,16.10
2019-06-01T01:32:36.937Z,16.00
2019-06-01T01:35:08.180Z,15.90
2019-06-01T01:37:37.908Z,15.90
2019-06-01T01:40:07.723Z,15.80
2019-06-01T01:42:37.367Z,15.80
2019-06-01T01:45:08.751Z,15.80
2019-06-01T01:47:38.734Z,15.80
2019-06-01T01:50:09.245Z,15.80
2019-06-01T01:52:40.043Z,15.70
2019-06-01T01:55:09.759Z,15.70
2019-06-01T01:57:39.491Z,15.70
2019-06-01T02:00:11.823Z,15.70
2019-06-01T02:02:41.586Z,15.60
2019-06-01T02:05:11.503Z,15.60
2019-06-01T02:07:41.386Z,15.50
2019-06-01T02:10:11.515Z,15.50
2019-06-01T02:12:41.279Z,15.40
2019-06-01T02:15:11.112Z,15.30
2019-06-01T02:17:40.906Z,15.30
2019-06-01T02:20:10.735Z,15.20
2019-06-01T02:22:40.458Z,15.10
2019-06-01T02:25:11.740Z,15.10
2019-06-01T02:27:41.455Z,15.00
2019-06-01T02:30:12.783Z,14.90
2019-06-01T02:32:42.516Z,14.90
2019-06-01T02:35:12.354Z,14.90
2019-06-01T02:37:42.050Z,15.00
2019-06-01T02:40:12.994Z,14.90
2019-06-01T02:42:43.024Z,15.00
2019-06-01T02:45:14.999Z,15.00
2019-06-01T02:47:44.733Z,14.90
2019-06-01T02:50:14.543Z,14.90
2019-06-01T02:52:44.278Z,14.80
2019-06-01T02:55:18.732Z,14.80
2019-06-01T02:57:48.445Z,14.80
2019-06-01T03:00:21.127Z,14.80
2019-06-01T03:02:51.118Z,14.80
2019-06-01T03:05:20.883Z,14.70
2019-06-01T03:07:52.202Z,14.70
2019-06-01T03:10:21.956Z,14.70
2019-06-01T03:12:54.602Z,14.60
2019-06-01T03:15:26.628Z,14.60
2019-06-01T03:17:59.349Z,14.60
2019-06-01T03:20:30.923Z,14.70
2019-06-01T03:23:03.695Z,14.70
2019-06-01T03:25:34.061Z,14.70
2019-06-01T03:28:04.796Z,14.70
2019-06-01T03:30:45.519Z,14.70
2019-06-01T03:33:14.270Z,14.60
2019-06-01T03:35:44.298Z,14.60
2019-06-01T03:38:13.943Z,14.60
2019-06-01T03:40:43.669Z,14.60
2019-06-01T03:43:13.582Z,14.60
2019-06-01T03:45:43.347Z,14.60
2019-06-01T03:48:13.061Z,14.60
2019-06-01T03:50:43.846Z,14.70
2019-06-01T03:53:13.494Z,14.70
2019-06-01T03:55:43.152Z,14.70
2019-06-01T03:58:12.873Z,14.80
2019-06-01T04:00:42.510Z,14.80
2019-06-01T04:03:12.286Z,14.80
2019-06-01T04:05:41.994Z,14.90
2019-06-01T04:08:11.773Z,15.00
2019-06-01T04:10:41.429Z,15.00
2019-06-01T04:13:11.926Z,15.10
2019-06-01T04:15:41.776Z,15.10
2019-06-01T04:18:13.956Z,15.10
2019-06-01T04:20:42.867Z,15.10
2019-06-01T04:23:12.634Z,15.10
2019-06-01T04:25:42.354Z,15.20
2019-06-01T04:28:12.614Z,15.20
2019-06-01T04:30:42.529Z,15.30
2019-06-01T04:33:13.277Z,15.30
2019-06-01T04:35:43.123Z,15.40
2019-06-01T04:38:13.427Z,15.50
2019-06-01T04:40:43.215Z,15.50
2019-06-01T04:43:14.158Z,15.60
2019-06-01T04:45:43.997Z,15.70
2019-06-01T04:48:14.662Z,15.70
2019-06-01T04:50:44.503Z,15.80
2019-06-01T04:53:15.121Z,15.80
2019-06-01T04:55:44.913Z,15.90
2019-06-01T04:58:15.071Z,16.00
2019-06-01T05:00:44.870Z,16.10
2019-06-01T05:03:15.366Z,16.10
2019-06-01T05:05:46.151Z,16.20
2019-06-01T05:08:15.924Z,16.30
2019-06-01T05:10:45.647Z,16.40
2019-06-01T05:13:15.650Z,16.40
2019-06-01T05:15:45.390Z,16.40
2019-06-01T05:18:18.340Z,16.50
2019-06-01T05:20:46.485Z,16.60
2019-06-01T05:23:16.967Z,16.70
2019-06-01T05:25:46.770Z,16.80
2019-06-01T05:28:17.471Z,16.90
2019-06-01T05:30:48.372Z,17.00
2019-06-01T05:33:35.279Z,17.10
2019-06-01T05:35:49.457Z,17.20
2019-06-01T05:38:19.183Z,17.20
2019-06-01T05:40:48.948Z,17.30
2019-06-01T05:43:21.133Z,17.30
2019-06-01T05:45:50.039Z,17.40
2019-06-01T05:48:24.802Z,17.40
2019-06-01T05:50:51.080Z,17.50
2019-06-01T05:53:20.812Z,17.60
2019-06-01T05:55:50.530Z,17.70
2019-06-01T05:58:21.659Z,17.80
2019-06-01T06:00:51.506Z,17.90
2019-06-01T06:03:32.026Z,18.00
2019-06-01T06:05:52.599Z,18.00
2019-06-01T06:08:22.328Z,18.10
2019-06-01T06:10:52.090Z,18.20
2019-06-01T06:13:21.814Z,18.30
2019-06-01T06:15:51.542Z,18.30
2019-06-01T06:18:21.966Z,18.30
2019-06-01T06:20:51.785Z,18.30
2019-06-01T06:23:22.712Z,18.30
2019-06-01T06:25:52.554Z,18.40
2019-06-01T06:28:22.952Z,18.40
2019-06-01T06:30:53.709Z,18.50
2019-06-01T06:33:23.728Z,18.50
2019-06-01T06:35:53.740Z,18.50
2019-06-01T06:38:24.058Z,18.60
2019-06-01T06:40:55.106Z,18.70
2019-06-01T06:43:32.632Z,18.80
2019-06-01T06:45:56.205Z,18.90
2019-06-01T06:48:25.963Z,19.00
2019-06-01T06:50:55.689Z,19.20
2019-06-01T06:53:34.477Z,19.30
2019-06-01T06:55:56.751Z,19.40
2019-06-01T06:58:26.609Z,19.40
2019-06-01T07:00:56.359Z,19.50
2019-06-01T07:03:27.136Z,19.60
2019-06-01T07:05:56.898Z,19.70
2019-06-01T07:08:26.632Z,19.70
2019-06-01T07:10:56.336Z,19.80
2019-06-01T07:13:26.080Z,19.80
2019-06-01T07:15:55.779Z,19.80
2019-06-01T07:18:25.792Z,19.90
2019-06-01T07:20:55.564Z,19.90
2019-06-01T07:23:25.919Z,20.00
2019-06-01T07:25:55.748Z,20.10
2019-06-01T07:28:26.269Z,20.20
2019-06-01T07:30:55.995Z,20.20
2019-06-01T07:33:26.439Z,20.30
2019-06-01T07:35:56.164Z,20.40
2019-06-01T07:38:26.801Z,20.50
2019-06-01T07:40:57.412Z,20.60
2019-06-01T07:43:27.164Z,20.70
2019-06-01T07:45:56.883Z,20.70
2019-06-01T07:48:27.114Z,20.80
2019-06-01T07:50:56.909Z,20.80
2019-06-01T07:53:27.424Z,20.80
2019-06-01T07:55:57.271Z,20.70
2019-06-01T07:58:26.987Z,20.70
2019-06-01T08:01:08.066Z,20.70
2019-06-01T08:03:39.063Z,20.70
2019-06-01T08:06:08.817Z,20.80
2019-06-01T08:08:38.451Z,20.80
2019-06-01T08:11:08.171Z,21.00
2019-06-01T08:13:37.884Z,21.00
2019-06-01T08:16:07.594Z,21.10
2019-06-01T08:18:38.447Z,21.10
2019-06-01T08:21:09.159Z,21.10
2019-06-01T08:23:40.188Z,21.20
2019-06-01T08:26:10.899Z,21.20
2019-06-01T08:28:40.648Z,21.30
2019-06-01T08:31:10.361Z,21.40
2019-06-01T08:33:40.101Z,21.50
2019-06-01T08:36:10.076Z,21.70
2019-06-01T08:38:39.838Z,21.80
2019-06-01T08:41:09.542Z,21.80
2019-06-01T08:43:39.263Z,21.90
2019-06-01T08:46:08.982Z,22.00
2019-06-01T08:48:38.706Z,22.00
2019-06-01T08:51:08.459Z,22.10
2019-06-01T08:53:38.172Z,22.20
2019-06-01T08:56:07.948Z,22.10
2019-06-01T08:58:37.915Z,22.30
2019-06-01T09:01:07.631Z,22.40
2019-06-01T09:03:45.540Z,22.50
2019-06-01T09:06:08.723Z,22.60
2019-06-01T09:08:38.430Z,22.70
2019-06-01T09:11:08.200Z,22.70
2019-06-01T09:13:37.926Z,22.70
2019-06-01T09:16:07.644Z,22.60
2019-06-01T09:18:37.362Z,22.60
2019-06-01T09:21:07.067Z,22.50
2019-06-01T09:23:37.577Z,22.50
2019-06-01T09:26:07.536Z,22.60
2019-06-01T09:28:37.299Z,22.70
2019-06-01T09:31:07.003Z,22.80
2019-06-01T09:33:36.992Z,22.90
2019-06-01T09:36:07.681Z,23.10
2019-06-01T09:38:39.444Z,23.20
2019-06-01T09:41:09.168Z,23.30
2019-06-01T09:43:38.914Z,23.40
2019-06-01T09:46:08.623Z,23.50
2019-06-01T09:48:38.618Z,23.70
2019-06-01T09:51:08.331Z,23.80
2019-06-01T09:53:41.067Z,23.90
2019-06-01T09:56:10.781Z,24.00
2019-06-01T09:58:42.523Z,24.00
2019-06-01T10:01:12.239Z,24.00
2019-06-01T10:03:41.974Z,24.00
2019-06-01T10:06:13.995Z,24.00
2019-06-01T10:08:42.450Z,24.20
2019-06-01T10:11:12.132Z,24.20
2019-06-01T10:13:42.598Z,24.30
2019-06-01T10:16:12.460Z,24.20
2019-06-01T10:18:43.128Z,24.20
2019-06-01T10:21:13.044Z,24.30
2019-06-01T10:23:42.884Z,24.30
2019-06-01T10:26:12.565Z,24.30
2019-06-01T10:28:42.282Z,24.30
2019-06-01T10:31:11.993Z,24.30
2019-06-01T10:33:43.205Z,24.40
2019-06-01T10:36:20.618Z,24.50
2019-06-01T10:38:45.392Z,24.60
2019-06-01T10:41:15.096Z,24.70
2019-06-01T10:43:44.858Z,24.80
2019-06-01T10:46:14.593Z,24.90
2019-06-01T10:48:44.307Z,25.00
2019-06-01T10:51:14.055Z,25.10
2019-06-01T10:53:43.938Z,25.20
2019-06-01T10:56:13.676Z,25.30
2019-06-01T10:58:58.790Z,25.40
2019-06-01T11:01:16.760Z,25.50
2019-06-01T11:03:47.223Z,25.50
2019-06-01T11:06:16.988Z,25.50
2019-06-01T11:08:46.694Z,25.40
2019-06-01T11:11:16.692Z,25.50
2019-06-01T11:13:46.417Z,25.50
2019-06-01T11:16:16.131Z,25.50
2019-06-01T11:18:45.893Z,25.60
2019-06-01T11:21:15.632Z,25.70
2019-06-01T11:23:46.683Z,25.70
2019-06-01T11:26:15.730Z,25.70
2019-06-01T11:28:45.432Z,25.60
2019-06-01T11:31:15.219Z,25.40
2019-06-01T11:33:44.934Z,25.20
2019-06-01T11:36:14.727Z,25.00
2019-06-01T11:38:44.885Z,24.90
2019-06-01T11:41:18.322Z,24.70
2019-06-01T11:43:46.092Z,24.60
2019-06-01T11:46:15.845Z,24.50
2019-06-01T11:48:45.591Z,24.50
2019-06-01T11:51:15.316Z,24.40
2019-06-01T11:53:45.703Z,24.30
2019-06-01T11:56:15.461Z,24.30
2019-06-01T11:58:46.940Z,24.20
2019-06-01T12:01:16.634Z,24.20
2019-06-01T12:03:46.347Z,24.20
2019-06-01T12:06:17.606Z,24.20
2019-06-01T12:08:47.652Z,24.20
2019-06-01T12:11:17.361Z,24.20
2019-06-01T12:13:47.135Z,24.10
2019-06-01T12:16:16.874Z,24.10
2019-06-01T12:18:46.982Z,24.00
2019-06-01T12:21:16.643Z,24.00
2019-06-01T12:23:47.482Z,24.00
2019-06-01T12:26:18.392Z,24.00
2019-06-01T12:28:48.373Z,24.00
2019-06-01T12:31:18.131Z,24.00
2019-06-01T12:33:48.707Z,24.00
2019-06-01T12:36:18.579Z,24.00
2019-06-01T12:38:51.731Z,24.00
2019-06-01T12:41:23.386Z,23.90
2019-06-01T12:44:13.079Z,23.90
2019-06-01T12:46:43.841Z,23.90
2019-06-01T12:49:13.876Z,23.80
2019-06-01T12:51:44.692Z,23.80
2019-06-01T12:54:14.341Z,23.90
2019-06-01T12:56:44.747Z,23.90
2019-06-01T12:59:14.589Z,23.90
2019-06-01T13:01:45.148Z,24.00
2019-06-01T13:04:14.958Z,24.00
2019-06-01T13:06:45.734Z,24.00
2019-06-01T13:09:15.187Z,24.00
2019-06-01T13:11:45.208Z,24.10
2019-06-01T13:14:15.071Z,24.10
2019-06-01T13:16:55.796Z,24.10
2019-06-01T13:19:17.188Z,24.00
2019-06-01T13:21:47.464Z,24.00
2019-06-01T13:24:17.254Z,24.00
2019-06-01T13:26:47.822Z,24.10
2019-06-01T13:29:18.722Z,24.20
2019-06-01T13:31:48.757Z,24.20
2019-06-01T13:34:18.461Z,24.20
2019-06-01T13:36:48.960Z,24.20
2019-06-01T13:39:18.894Z,24.10
2019-06-01T13:41:49.535Z,24.10
2019-06-01T13:44:21.705Z,24.00
2019-06-01T13:46:51.551Z,24.00
2019-06-01T13:49:21.294Z,24.00
2019-06-01T13:51:52.521Z,23.90
2019-06-01T13:54:22.260Z,23.90
2019-06-01T13:56:53.138Z,23.90
2019-06-01T13:59:22.823Z,23.90
2019-06-01T14:01:53.193Z,23.90
2019-06-01T14:04:22.974Z,23.90
2019-06-01T14:06:53.176Z,23.90
2019-06-01T14:09:22.945Z,24.00
2019-06-01T14:11:53.521Z,24.00
2019-06-01T14:14:23.399Z,24.00
2019-06-01T14:16:53.572Z,23.90
2019-06-01T14:19:23.471Z,23.90
2019-06-01T14:21:54.217Z,23.90
2019-06-01T14:24:24.048Z,24.00
2019-06-01T14:26:54.377Z,24.00
2019-06-01T14:29:24.390Z,24.10
2019-06-01T14:31:57.383Z,24.20
2019-06-01T14:34:27.266Z,24.20
2019-06-01T14:36:57.384Z,24.30
2019-06-01T14:39:27.124Z,24.30
2019-06-01T14:41:57.679Z,24.40
2019-06-01T14:44:29.356Z,24.50
2019-06-01T14:47:03.841Z,24.50
2019-06-01T14:49:29.599Z,24.50
2019-06-01T14:51:59.223Z,24.50
2019-06-01T14:54:28.967Z,24.50
2019-06-01T14:56:58.683Z,24.40
2019-06-01T14:59:30.005Z,24.40
2019-06-01T15:01:58.888Z,24.30
2019-06-01T15:04:40.352Z,24.30
2019-06-01T15:07:10.906Z,24.20
2019-06-01T15:09:40.651Z,24.10
2019-06-01T15:12:10.367Z,24.00
2019-06-01T15:14:40.160Z,24.00
2019-06-01T15:17:09.859Z,24.00
2019-06-01T15:19:41.193Z,24.00
2019-06-01T15:22:10.358Z,24.00
2019-06-01T15:24:40.017Z,23.90
2019-06-01T15:27:10.761Z,23.90
2019-06-01T15:29:40.463Z,23.90
2019-06-01T15:32:10.174Z,23.90
2019-06-01T15:34:39.883Z,23.80
2019-06-01T15:37:09.592Z,23.80
2019-06-01T15:39:39.350Z,23.80
2019-06-01T15:42:09.067Z,23.70
2019-06-01T15:44:38.828Z,23.70
2019-06-01T15:47:08.555Z,23.70
2019-06-01T15:49:38.270Z,23.70
2019-06-01T15:52:07.983Z,23.60
2019-06-01T15:54:37.708Z,23.60
2019-06-01T15:57:07.490Z,23.60
2019-06-01T15:59:37.215Z,23.60
2019-06-01T16:02:06.956Z,23.60
2019-06-01T16:04:36.687Z,23.50
2019-06-01T16:07:06.427Z,23.50
2019-06-01T16:09:42.830Z,23.40
2019-06-01T16:12:06.824Z,23.40
2019-06-01T16:14:36.513Z,23.40
2019-06-01T16:17:06.236Z,23.40
2019-06-01T16:19:36.991Z,23.40
2019-06-01T16:22:06.698Z,23.40
2019-06-01T16:24:37.479Z,23.40
2019-06-01T16:27:07.197Z,23.40
2019-06-01T16:29:44.147Z,23.40
2019-06-01T16:32:11.304Z,23.40
2019-06-01T16:34:42.719Z,23.50
2019-06-01T16:37:12.435Z,23.50
2019-06-01T16:39:58.018Z,23.60
2019-06-01T16:42:12.736Z,23.70
2019-06-01T16:44:45.952Z,23.90
2019-06-01T16:47:19.556Z,24.00
2019-06-01T16:49:49.244Z,24.20
2019-06-01T16:52:19.007Z,24.20
2019-06-01T16:54:48.767Z,24.30
2019-06-01T16:57:18.505Z,24.30
2019-06-01T16:59:48.240Z,24.30
2019-06-01T17:02:18.003Z,24.30
2019-06-01T17:04:47.750Z,24.30
2019-06-01T17:07:17.488Z,24.30
2019-06-01T17:10:21.783Z,24.30
2019-06-01T17:12:43.002Z,24.30
2019-06-01T17:15:09.756Z,24.20
2019-06-01T17:17:39.483Z,24.10
2019-06-01T17:20:28.615Z,24.10
2019-06-01T17:22:59.544Z,24.10
2019-06-01T17:25:29.357Z,24.00
2019-06-01T17:28:00.140Z,24.00
2019-06-01T17:30:31.221Z,23.90
2019-06-01T17:33:02.319Z,23.90
2019-06-01T17:35:35.810Z,23.80
2019-06-01T17:38:07.325Z,23.70
2019-06-01T17:40:42.336Z,23.70
2019-06-01T17:43:08.944Z,23.60
2019-06-01T17:45:38.777Z,23.60
2019-06-01T17:48:22.980Z,23.40
2019-06-01T17:50:38.979Z,23.30
2019-06-01T17:53:08.915Z,23.30
2019-06-01T17:55:41.020Z,23.10
2019-06-01T17:58:12.427Z,23.00
2019-06-01T18:00:41.363Z,22.90
2019-06-01T18:03:12.052Z,22.70
2019-06-01T18:05:42.608Z,22.50
2019-06-01T18:08:12.789Z,22.20
2019-06-01T18:10:53.120Z,22.00
2019-06-01T18:13:15.782Z,21.80
2019-06-01T18:15:45.507Z,21.80
2019-06-01T18:18:15.238Z,21.70
2019-06-01T18:20:45.002Z,21.70
2019-06-01T18:23:14.683Z,21.60
2019-06-01T18:25:44.443Z,21.60
2019-06-01T18:28:20.165Z,21.50
2019-06-01T18:30:50.974Z,21.50
2019-06-01T18:33:21.022Z,21.50
2019-06-01T18:35:50.759Z,21.40
2019-06-01T18:38:20.491Z,21.30
2019-06-01T18:40:50.216Z,21.20
2019-06-01T18:43:20.281Z,21.20
2019-06-01T18:45:50.399Z,21.00
2019-06-01T18:48:20.970Z,20.90
2019-06-01T18:50:50.975Z,20.90
2019-06-01T18:53:21.212Z,20.80
2019-06-01T18:55:51.069Z,20.70
2019-06-01T18:58:20.851Z,20.60
2019-06-01T19:00:50.595Z,20.50
2019-06-01T19:03:20.298Z,20.40
2019-06-01T19:05:50.038Z,20.30
2019-06-01T19:08:19.771Z,20.20
2019-06-01T19:10:50.076Z,20.10
2019-06-01T19:13:20.107Z,20.00
2019-06-01T19:15:49.920Z,19.90
2019-06-01T19:18:19.637Z,19.80
2019-06-01T19:20:49.407Z,19.70
2019-06-01T19:23:22.059Z,19.60
2019-06-01T19:25:51.536Z,19.60
2019-06-01T19:28:21.259Z,19.60
2019-06-01T19:30:51.010Z,19.60
2019-06-01T19:33:20.760Z,19.50
2019-06-01T19:35:52.328Z,19.40
2019-06-01T19:38:22.556Z,19.40
2019-06-01T19:40:52.455Z,19.30
2019-06-01T19:43:22.533Z,19.20
2019-06-01T19:45:52.487Z,19.10
2019-06-01T19:48:22.243Z,19.00
2019-06-01T19:50:52.051Z,19.00
2019-06-01T19:53:21.826Z,18.90
2019-06-01T19:55:51.582Z,18.90
2019-06-01T19:58:22.377Z,18.80
2019-06-01T20:00:52.160Z,18.80
2019-06-01T20:03:23.720Z,18.70
2019-06-01T20:05:56.448Z,18.70
2019-06-01T20:08:26.228Z,18.60
2019-06-01T20:10:55.959Z,18.50
2019-06-01T20:13:25.750Z,18.40
2019-06-01T20:15:55.489Z,18.30
2019-06-01T20:18:25.197Z,18.30
2019-06-01T20:20:54.965Z,18.30
2019-06-01T20:23:25.067Z,18.30
2019-06-01T20:26:36.823Z,18.20
2019-06-01T20:28:53.811Z,18.20
2019-06-01T20:31:23.601Z,18.20
2019-06-01T20:33:56.373Z,18.20
2019-06-01T20:36:26.451Z,18.00
2019-06-01T20:38:56.203Z,17.90
2019-06-01T20:41:31.001Z,17.90
2019-06-01T20:44:03.805Z,17.80
2019-06-01T20:46:35.850Z,17.80
2019-06-01T20:49:05.555Z,17.70
2019-06-01T20:51:35.338Z,17.60
2019-06-01T20:54:05.051Z,17.60
2019-06-01T20:56:34.830Z,17.50
2019-06-01T20:59:18.706Z,17.50
2019-06-01T21:01:52.982Z,17.50
2019-06-01T21:04:22.702Z,17.40
2019-06-01T21:06:54.633Z,17.40
2019-06-01T21:09:24.467Z,17.30
2019-06-01T21:11:54.495Z,17.20
2019-06-01T21:14:24.232Z,17.20
2019-06-01T21:16:54.060Z,17.20
2019-06-01T21:19:24.475Z,17.20
2019-06-01T21:21:54.335Z,17.00
2019-06-01T21:24:25.222Z,17.00
2019-06-01T21:26:55.189Z,17.10
2019-06-01T21:29:25.232Z,17.00
2019-06-01T21:31:55.544Z,17.00
2019-06-01T21:34:25.509Z,17.00
2019-06-01T21:36:55.271Z,17.00
2019-06-01T21:39:25.536Z,17.00
2019-06-01T21:41:55.775Z,17.00
2019-06-01T21:44:25.771Z,16.90
2019-06-01T21:46:55.615Z,16.80
2019-06-01T21:49:25.934Z,16.80
2019-06-01T21:51:55.912Z,16.70
2019-06-01T21:54:26.351Z,16.70
2019-06-01T21:56:59.952Z,16.70
2019-06-01T21:59:29.671Z,16.60
2019-06-01T22:01:59.487Z,16.50
2019-06-01T22:04:29.212Z,16.40
2019-06-01T22:06:58.935Z,16.20
2019-06-01T22:09:28.788Z,16.20
2019-06-01T22:11:58.522Z,16.10
2019-06-01T22:14:28.273Z,16.10
2019-06-01T22:16:57.996Z,16.10
2019-06-01T22:19:28.096Z,16.00
2019-06-01T22:21:58.095Z,16.00
2019-06-01T22:24:28.289Z,15.90
2019-06-01T22:26:58.047Z,15.90
2019-06-01T22:29:28.564Z,16.00
2019-06-01T22:31:58.552Z,16.00
2019-06-01T22:34:29.323Z,16.00
2019-06-01T22:36:59.126Z,16.00
2019-06-01T22:39:29.848Z,16.00
2019-06-01T22:42:05.768Z,16.00
2019-06-01T22:44:36.943Z,16.00
2019-06-01T22:47:06.719Z,15.90
2019-06-01T22:49:36.519Z,15.90
2019-06-01T22:52:06.322Z,15.80
2019-06-01T22:54:36.034Z,15.80
2019-06-01T22:57:06.016Z,15.70
2019-06-01T22:59:35.923Z,15.70
2019-06-01T23:02:05.643Z,15.70
2019-06-01T23:04:35.371Z,15.70
2019-06-01T23:07:05.240Z,15.70
2019-06-01T23:09:35.230Z,15.70
2019-06-01T23:12:05.121Z,15.60
2019-06-01T23:14:34.798Z,15.60
2019-06-01T23:17:04.527Z,15.60
2019-06-01T23:19:34.252Z,15.50
2019-06-01T23:22:04.210Z,15.50
2019-06-01T23:24:34.006Z,15.50
2019-06-01T23:27:07.656Z,15.40
2019-06-01T23:29:37.607Z,15.30
2019-06-01T23:32:07.422Z,15.30
2019-06-01T23:34:37.567Z,15.40
2019-06-01T23:37:07.656Z,15.30
2019-06-01T23:39:38.569Z,15.30
2019-06-01T23:42:09.869Z,15.30
2019-06-01T23:44:39.871Z,15.30
2019-06-01T23:47:10.447Z,15.30
2019-06-01T23:49:40.243Z,15.30
2019-06-01T23:52:10.509Z,15.20
2019-06-01T23:54:40.726Z,15.10
2019-06-01T23:57:10.764Z,15.20
2019-06-01T23:59:41.295Z,15.10
